Custer, SD

1:50 AM MDT on September 18, 2014 (GMT -0600)
Mondell | Change Station
CLOSE
Current Station
Airport
Location: Newcastle,
Elevation: 4173 ft
Nearby Weather Stations

Elev 4173 ft 43.89 °N, 104.32 °W | Updated 15 minutes ago

Clear
Clear
57 °F
Feels Like 57 °F
N
0
Wind Variable Wind from North

Today
High -- | Low -- °F
--% Chance of Precip.
Yesterday
High -- | Low -- °F
Precip. -- in
6:37 AM 6:59 PM
Waning Crescent, 29% visible
Pressure 29.98 in
Visibility 10.0 miles
Clouds Clear
Dew Point 45 °F
Humidity 63%
Rainfall 0.00 in
Snow Depth Not available.
UV 0 out of 12
Pollen 5.50 out of 12
Air Quality Not available.
Flu Activity Not available.
METAR KECS 180735Z AUTO 00000KT 10SM CLR 14/07 A2998 RMK AO2

More Conditions Fewer Conditions

Pressure 29.98 in
Visibility 10.0 miles
Clouds Clear
Dew Point 45 °F
Humidity 63%
Rainfall 0.00 in
Snow Depth Not available.
UV 0 out of 12
Pollen 5.50 out of 12
Air Quality Not available.
Flu Activity Not available.
METAR KECS 180735Z AUTO 00000KT 10SM CLR 14/07 A2998 RMK AO2

More Conditions Fewer Conditions

10-Day Weather Forecast

Almanac

Astronomy

Sep. 18, 2014 Rise Set
Actual Time 6:37 AM MDT 6:59 PM MDT
Civil Twilight 6:08 AM MDT 7:27 PM MDT
Nautical Twilight 5:34 AM MDT 8:01 PM MDT
Astronomical Twilight 4:59 AM MDT 8:36 PM MDT
Moon 1:23 AM MDT 3:58 PM MDT
Length of Visible Light 13h 19m
Length of Day
12h 21m
Tomorrow will be 2m 58s shorter.
Waning Crescent, 29% of the Moon is Illuminated
Today
Waning Crescent
Sep 24
New
Oct 1
First Quarter
Oct 8
Full
Oct 15
Last Quarter

Today's Extremes

State Highs State Lows

Community

WunderPhotos

Upload Photos

1,754,299 photos uploaded!

Nearby

Snow Depth

Station Depth Elevation
Blind Park 0 in 6890 ft

Earthquake Activity

City Distance Mag. Time & Date
No recent earthquake activity has been reported nearby.
Minimum magnitude displayed is 2.5.

Coastal Water Temperatures

Place Temperature
No Stations Reporting

Nearby Weather Stations